sensor_id;sensor_type;location;lat;lon;timestamp;P1;durP1;ratioP1;P2;durP2;ratioP2
37203;SDS011;23098;48.054;10.636;2022-10-04T00:03:06;6.88;;;4.80;;
37203;SDS011;23098;48.054;10.636;2022-10-04T00:05:40;9.05;;;5.45;;
37203;SDS011;23098;48.054;10.636;2022-10-04T00:08:26;11.20;;;5.70;;
37203;SDS011;23098;48.054;10.636;2022-10-04T00:11:01;11.05;;;5.80;;
37203;SDS011;23098;48.054;10.636;2022-10-04T00:13:29;7.60;;;5.38;;
37203;SDS011;23098;48.054;10.636;2022-10-04T00:15:57;10.50;;;5.75;;
37203;SDS011;23098;48.054;10.636;2022-10-04T00:18:28;9.93;;;5.95;;
37203;SDS011;23098;48.054;10.636;2022-10-04T00:21:05;7.82;;;5.20;;
37203;SDS011;23098;48.054;10.636;2022-10-04T00:26:03;12.00;;;5.90;;
37203;SDS011;23098;48.054;10.636;2022-10-04T00:31:20;9.80;;;5.35;;
37203;SDS011;23098;48.054;10.636;2022-10-04T00:36:44;10.32;;;6.85;;
37203;SDS011;23098;48.054;10.636;2022-10-04T00:39:23;15.05;;;9.63;;
37203;SDS011;23098;48.054;10.636;2022-10-04T00:41:55;15.05;;;8.20;;
37203;SDS011;23098;48.054;10.636;2022-10-04T00:44:29;14.55;;;7.85;;
37203;SDS011;23098;48.054;10.636;2022-10-04T00:46:58;15.63;;;7.45;;
37203;SDS011;23098;48.054;10.636;2022-10-04T00:49:28;13.00;;;7.43;;
37203;SDS011;23098;48.054;10.636;2022-10-04T00:52:02;9.68;;;5.65;;
37203;SDS011;23098;48.054;10.636;2022-10-04T00:54:41;8.38;;;5.65;;
37203;SDS011;23098;48.054;10.636;2022-10-04T00:57:11;8.23;;;5.95;;
37203;SDS011;23098;48.054;10.636;2022-10-04T00:59:49;8.48;;;5.80;;
37203;SDS011;23098;48.054;10.636;2022-10-04T01:02:20;12.70;;;6.68;;
37203;SDS011;23098;48.054;10.636;2022-10-04T01:07:12;8.23;;;5.25;;
37203;SDS011;23098;48.054;10.636;2022-10-04T01:09:46;8.40;;;4.70;;
37203;SDS011;23098;48.054;10.636;2022-10-04T01:12:25;8.93;;;5.20;;
37203;SDS011;23098;48.054;10.636;2022-10-04T01:15:11;14.77;;;6.07;;
37203;SDS011;23098;48.054;10.636;2022-10-04T01:20:31;12.35;;;7.20;;
37203;SDS011;23098;48.054;10.636;2022-10-04T01:28:10;7.35;;;4.15;;
37203;SDS011;23098;48.054;10.636;2022-10-04T01:30:36;6.38;;;4.88;;
37203;SDS011;23098;48.054;10.636;2022-10-04T01:33:02;9.73;;;5.03;;
37203;SDS011;23098;48.054;10.636;2022-10-04T01:35:30;7.72;;;4.93;;
37203;SDS011;23098;48.054;10.636;2022-10-04T01:37:59;7.32;;;5.15;;
37203;SDS011;23098;48.054;10.636;2022-10-04T01:40:26;8.77;;;4.53;;
37203;SDS011;23098;48.054;10.636;2022-10-04T01:42:55;7.20;;;4.72;;
37203;SDS011;23098;48.054;10.636;2022-10-04T01:45:35;8.93;;;4.60;;
37203;SDS011;23098;48.054;10.636;2022-10-04T01:48:15;6.75;;;4.25;;
37203;SDS011;23098;48.054;10.636;2022-10-04T01:50:55;6.13;;;4.57;;
37203;SDS011;23098;48.054;10.636;2022-10-04T01:53:25;6.65;;;4.47;;
37203;SDS011;23098;48.054;10.636;2022-10-04T01:55:55;5.97;;;4.35;;
37203;SDS011;23098;48.054;10.636;2022-10-04T01:58:44;8.52;;;4.93;;
37203;SDS011;23098;48.054;10.636;2022-10-04T02:01:13;6.97;;;4.60;;
37203;SDS011;23098;48.054;10.636;2022-10-04T02:03:54;10.52;;;4.75;;
37203;SDS011;23098;48.054;10.636;2022-10-04T02:06:26;8.32;;;4.68;;
37203;SDS011;23098;48.054;10.636;2022-10-04T02:08:53;6.18;;;4.60;;
37203;SDS011;23098;48.054;10.636;2022-10-04T02:11:23;7.45;;;4.88;;
37203;SDS011;23098;48.054;10.636;2022-10-04T02:13:52;6.85;;;4.82;;
37203;SDS011;23098;48.054;10.636;2022-10-04T02:16:19;10.88;;;4.90;;
37203;SDS011;23098;48.054;10.636;2022-10-04T02:18:46;7.25;;;4.15;;
37203;SDS011;23098;48.054;10.636;2022-10-04T02:21:15;11.38;;;5.00;;
37203;SDS011;23098;48.054;10.636;2022-10-04T02:23:42;6.85;;;4.70;;
37203;SDS011;23098;48.054;10.636;2022-10-04T02:26:10;6.28;;;4.50;;
37203;SDS011;23098;48.054;10.636;2022-10-04T02:28:36;6.00;;;4.45;;
37203;SDS011;23098;48.054;10.636;2022-10-04T02:31:03;6.43;;;4.90;;
37203;SDS011;23098;48.054;10.636;2022-10-04T02:33:49;10.63;;;6.50;;
37203;SDS011;23098;48.054;10.636;2022-10-04T02:36:16;12.70;;;6.55;;
37203;SDS011;23098;48.054;10.636;2022-10-04T02:38:52;23.02;;;9.98;;
37203;SDS011;23098;48.054;10.636;2022-10-04T02:44:01;19.13;;;8.55;;
37203;SDS011;23098;48.054;10.636;2022-10-04T02:49:21;20.02;;;9.40;;
37203;SDS011;23098;48.054;10.636;2022-10-04T02:52:22;16.30;;;8.30;;
37203;SDS011;23098;48.054;10.636;2022-10-04T02:55:03;9.35;;;5.93;;
37203;SDS011;23098;48.054;10.636;2022-10-04T02:57:48;9.20;;;5.97;;
37203;SDS011;23098;48.054;10.636;2022-10-04T03:03:10;8.38;;;5.05;;
37203;SDS011;23098;48.054;10.636;2022-10-04T03:05:39;9.50;;;5.07;;
37203;SDS011;23098;48.054;10.636;2022-10-04T03:08:07;12.85;;;7.20;;
37203;SDS011;23098;48.054;10.636;2022-10-04T03:10:32;8.98;;;6.05;;
37203;SDS011;23098;48.054;10.636;2022-10-04T03:13:00;13.38;;;6.18;;
37203;SDS011;23098;48.054;10.636;2022-10-04T03:15:26;9.57;;;5.28;;
37203;SDS011;23098;48.054;10.636;2022-10-04T03:17:52;9.02;;;5.10;;
37203;SDS011;23098;48.054;10.636;2022-10-04T03:20:17;9.07;;;5.32;;
37203;SDS011;23098;48.054;10.636;2022-10-04T03:22:45;9.07;;;5.13;;
37203;SDS011;23098;48.054;10.636;2022-10-04T03:25:16;8.45;;;5.43;;
37203;SDS011;23098;48.054;10.636;2022-10-04T03:27:46;8.18;;;5.07;;
37203;SDS011;23098;48.054;10.636;2022-10-04T03:30:13;8.65;;;5.22;;
37203;SDS011;23098;48.054;10.636;2022-10-04T03:32:40;8.10;;;5.32;;
37203;SDS011;23098;48.054;10.636;2022-10-04T03:35:07;9.80;;;5.30;;
37203;SDS011;23098;48.054;10.636;2022-10-04T03:37:59;8.65;;;4.75;;
37203;SDS011;23098;48.054;10.636;2022-10-04T03:40:29;7.20;;;5.07;;
37203;SDS011;23098;48.054;10.636;2022-10-04T03:42:57;9.40;;;4.93;;
37203;SDS011;23098;48.054;10.636;2022-10-04T03:45:25;9.50;;;5.65;;
37203;SDS011;23098;48.054;10.636;2022-10-04T03:47:52;9.13;;;5.45;;
37203;SDS011;23098;48.054;10.636;2022-10-04T03:50:27;8.85;;;5.68;;
37203;SDS011;23098;48.054;10.636;2022-10-04T03:52:58;7.70;;;5.15;;
37203;SDS011;23098;48.054;10.636;2022-10-04T03:55:31;8.30;;;5.53;;
37203;SDS011;23098;48.054;10.636;2022-10-04T03:58:02;10.50;;;6.28;;
37203;SDS011;23098;48.054;10.636;2022-10-04T04:00:30;9.13;;;6.10;;
37203;SDS011;23098;48.054;10.636;2022-10-04T04:03:00;8.45;;;5.82;;
37203;SDS011;23098;48.054;10.636;2022-10-04T04:05:31;8.27;;;5.43;;
37203;SDS011;23098;48.054;10.636;2022-10-04T04:08:09;10.38;;;5.43;;
37203;SDS011;23098;48.054;10.636;2022-10-04T04:10:51;8.70;;;5.47;;
37203;SDS011;23098;48.054;10.636;2022-10-04T04:13:27;7.40;;;5.32;;
37203;SDS011;23098;48.054;10.636;2022-10-04T04:18:43;8.15;;;5.47;;
37203;SDS011;23098;48.054;10.636;2022-10-04T04:21:11;12.18;;;5.65;;
37203;SDS011;23098;48.054;10.636;2022-10-04T04:23:46;9.00;;;5.90;;
37203;SDS011;23098;48.054;10.636;2022-10-04T04:26:32;9.38;;;6.55;;
37203;SDS011;23098;48.054;10.636;2022-10-04T04:29:17;8.77;;;6.07;;
37203;SDS011;23098;48.054;10.636;2022-10-04T04:31:51;10.30;;;7.07;;
37203;SDS011;23098;48.054;10.636;2022-10-04T04:34:32;8.32;;;7.18;;
37203;SDS011;23098;48.054;10.636;2022-10-04T04:37:12;10.47;;;6.43;;
37203;SDS011;23098;48.054;10.636;2022-10-04T04:39:38;8.25;;;5.40;;
37203;SDS011;23098;48.054;10.636;2022-10-04T04:44:34;7.90;;;5.93;;
37203;SDS011;23098;48.054;10.636;2022-10-04T04:47:06;6.90;;;5.05;;
37203;SDS011;23098;48.054;10.636;2022-10-04T04:49:36;6.93;;;5.20;;
37203;SDS011;23098;48.054;10.636;2022-10-04T04:52:04;8.30;;;5.07;;
37203;SDS011;23098;48.054;10.636;2022-10-04T04:54:30;6.80;;;5.05;;
37203;SDS011;23098;48.054;10.636;2022-10-04T04:56:56;9.90;;;5.45;;
37203;SDS011;23098;48.054;10.636;2022-10-04T04:59:23;7.25;;;4.95;;
37203;SDS011;23098;48.054;10.636;2022-10-04T05:01:51;7.93;;;5.00;;
37203;SDS011;23098;48.054;10.636;2022-10-04T05:04:21;7.90;;;5.25;;
37203;SDS011;23098;48.054;10.636;2022-10-04T05:06:57;9.47;;;5.67;;
37203;SDS011;23098;48.054;10.636;2022-10-04T05:09:29;9.43;;;5.40;;
37203;SDS011;23098;48.054;10.636;2022-10-04T05:12:00;10.18;;;5.45;;
37203;SDS011;23098;48.054;10.636;2022-10-04T05:14:33;9.88;;;5.90;;
37203;SDS011;23098;48.054;10.636;2022-10-04T05:17:03;10.63;;;6.55;;
37203;SDS011;23098;48.054;10.636;2022-10-04T05:19:31;10.80;;;6.60;;
37203;SDS011;23098;48.054;10.636;2022-10-04T05:22:01;12.02;;;6.40;;
37203;SDS011;23098;48.054;10.636;2022-10-04T05:24:33;12.48;;;7.03;;
37203;SDS011;23098;48.054;10.636;2022-10-04T05:27:12;11.43;;;7.03;;
37203;SDS011;23098;48.054;10.636;2022-10-04T05:29:43;10.48;;;6.15;;
37203;SDS011;23098;48.054;10.636;2022-10-04T05:32:28;10.10;;;6.28;;
37203;SDS011;23098;48.054;10.636;2022-10-04T05:35:18;8.70;;;5.72;;
37203;SDS011;23098;48.054;10.636;2022-10-04T05:37:54;7.57;;;5.05;;
37203;SDS011;23098;48.054;10.636;2022-10-04T05:40:59;7.72;;;4.95;;
37203;SDS011;23098;48.054;10.636;2022-10-04T05:48:38;9.18;;;4.65;;
37203;SDS011;23098;48.054;10.636;2022-10-04T05:53:47;12.55;;;7.68;;
37203;SDS011;23098;48.054;10.636;2022-10-04T06:07:41;9.30;;;7.30;;
37203;SDS011;23098;48.054;10.636;2022-10-04T06:16:04;8.50;;;6.32;;
37203;SDS011;23098;48.054;10.636;2022-10-04T06:21:26;6.47;;;4.60;;
37203;SDS011;23098;48.054;10.636;2022-10-04T06:24:04;6.85;;;4.75;;
37203;SDS011;23098;48.054;10.636;2022-10-04T06:26:44;6.10;;;4.45;;
37203;SDS011;23098;48.054;10.636;2022-10-04T06:29:20;5.80;;;4.60;;
37203;SDS011;23098;48.054;10.636;2022-10-04T06:32:00;6.68;;;4.60;;
37203;SDS011;23098;48.054;10.636;2022-10-04T06:39:55;5.38;;;4.05;;
37203;SDS011;23098;48.054;10.636;2022-10-04T06:42:46;6.82;;;5.13;;
37203;SDS011;23098;48.054;10.636;2022-10-04T06:56:25;6.93;;;3.83;;
37203;SDS011;23098;48.054;10.636;2022-10-04T07:02:13;7.15;;;4.30;;
37203;SDS011;23098;48.054;10.636;2022-10-04T07:10:08;6.18;;;4.15;;
37203;SDS011;23098;48.054;10.636;2022-10-04T07:12:42;7.28;;;4.63;;
37203;SDS011;23098;48.054;10.636;2022-10-04T07:15:28;6.82;;;4.70;;
37203;SDS011;23098;48.054;10.636;2022-10-04T07:17:58;5.53;;;4.65;;
37203;SDS011;23098;48.054;10.636;2022-10-04T07:20:30;8.73;;;4.80;;
37203;SDS011;23098;48.054;10.636;2022-10-04T07:23:01;7.32;;;4.57;;
37203;SDS011;23098;48.054;10.636;2022-10-04T07:25:51;5.50;;;4.47;;
37203;SDS011;23098;48.054;10.636;2022-10-04T07:28:29;6.88;;;4.88;;
37203;SDS011;23098;48.054;10.636;2022-10-04T07:33:51;9.18;;;4.63;;
37203;SDS011;23098;48.054;10.636;2022-10-04T07:36:42;8.27;;;5.93;;
37203;SDS011;23098;48.054;10.636;2022-10-04T07:39:20;7.80;;;4.45;;
37203;SDS011;23098;48.054;10.636;2022-10-04T07:45:34;6.60;;;4.72;;
37203;SDS011;23098;48.054;10.636;2022-10-04T07:50:14;9.10;;;4.30;;
37203;SDS011;23098;48.054;10.636;2022-10-04T07:52:49;7.20;;;4.32;;
37203;SDS011;23098;48.054;10.636;2022-10-04T07:58:11;5.50;;;3.90;;
37203;SDS011;23098;48.054;10.636;2022-10-04T08:00:56;6.72;;;3.97;;
37203;SDS011;23098;48.054;10.636;2022-10-04T08:14:51;5.85;;;4.40;;
37203;SDS011;23098;48.054;10.636;2022-10-04T08:28:52;4.78;;;4.03;;
37203;SDS011;23098;48.054;10.636;2022-10-04T08:35:07;7.10;;;3.83;;
37203;SDS011;23098;48.054;10.636;2022-10-04T08:43:41;6.85;;;3.60;;
37203;SDS011;23098;48.054;10.636;2022-10-04T08:46:42;6.15;;;3.60;;
37203;SDS011;23098;48.054;10.636;2022-10-04T08:49:43;4.78;;;3.60;;
37203;SDS011;23098;48.054;10.636;2022-10-04T08:52:48;5.47;;;3.77;;
37203;SDS011;23098;48.054;10.636;2022-10-04T08:58:13;4.45;;;3.30;;
37203;SDS011;23098;48.054;10.636;2022-10-04T09:06:35;5.65;;;3.85;;
37203;SDS011;23098;48.054;10.636;2022-10-04T09:34:14;5.82;;;3.80;;
37203;SDS011;23098;48.054;10.636;2022-10-04T09:37:03;4.18;;;3.50;;
37203;SDS011;23098;48.054;10.636;2022-10-04T09:39:51;5.22;;;3.45;;
37203;SDS011;23098;48.054;10.636;2022-10-04T09:43:04;6.18;;;3.58;;
37203;SDS011;23098;48.054;10.636;2022-10-04T09:46:00;5.10;;;3.70;;
37203;SDS011;23098;48.054;10.636;2022-10-04T09:54:09;4.18;;;3.10;;
37203;SDS011;23098;48.054;10.636;2022-10-04T09:57:05;4.65;;;3.30;;
37203;SDS011;23098;48.054;10.636;2022-10-04T10:05:43;6.15;;;3.35;;
37203;SDS011;23098;48.054;10.636;2022-10-04T10:19:59;4.03;;;2.70;;
37203;SDS011;23098;48.054;10.636;2022-10-04T10:25:58;3.75;;;2.70;;
37203;SDS011;23098;48.054;10.636;2022-10-04T10:46:27;4.82;;;3.00;;
37203;SDS011;23098;48.054;10.636;2022-10-04T10:52:01;4.15;;;2.75;;
37203;SDS011;23098;48.054;10.636;2022-10-04T10:58:01;4.35;;;2.83;;
37203;SDS011;23098;48.054;10.636;2022-10-04T11:20:47;3.50;;;1.90;;
37203;SDS011;23098;48.054;10.636;2022-10-04T11:23:50;2.50;;;1.90;;
37203;SDS011;23098;48.054;10.636;2022-10-04T11:29:46;3.08;;;2.00;;
37203;SDS011;23098;48.054;10.636;2022-10-04T11:35:42;4.32;;;2.50;;
37203;SDS011;23098;48.054;10.636;2022-10-04T11:46:55;3.58;;;2.33;;
37203;SDS011;23098;48.054;10.636;2022-10-04T11:58:04;3.08;;;2.40;;
37203;SDS011;23098;48.054;10.636;2022-10-04T12:00:56;2.20;;;1.90;;
37203;SDS011;23098;48.054;10.636;2022-10-04T12:06:41;2.97;;;1.90;;
37203;SDS011;23098;48.054;10.636;2022-10-04T12:14:56;3.50;;;1.90;;
37203;SDS011;23098;48.054;10.636;2022-10-04T12:33:58;2.28;;;1.90;;
37203;SDS011;23098;48.054;10.636;2022-10-04T12:39:33;1.73;;;1.40;;
37203;SDS011;23098;48.054;10.636;2022-10-04T12:42:06;3.47;;;1.55;;
37203;SDS011;23098;48.054;10.636;2022-10-04T12:48:03;1.73;;;1.42;;
37203;SDS011;23098;48.054;10.636;2022-10-04T12:53:15;2.63;;;1.40;;
37203;SDS011;23098;48.054;10.636;2022-10-04T12:58:40;1.58;;;1.35;;
37203;SDS011;23098;48.054;10.636;2022-10-04T13:01:25;1.88;;;1.45;;
37203;SDS011;23098;48.054;10.636;2022-10-04T13:15:08;2.78;;;1.55;;
37203;SDS011;23098;48.054;10.636;2022-10-04T13:17:51;3.55;;;1.80;;
37203;SDS011;23098;48.054;10.636;2022-10-04T13:23:18;2.67;;;1.80;;
37203;SDS011;23098;48.054;10.636;2022-10-04T13:26:10;2.80;;;1.40;;
37203;SDS011;23098;48.054;10.636;2022-10-04T13:29:01;2.38;;;1.40;;
37203;SDS011;23098;48.054;10.636;2022-10-04T13:31:45;1.92;;;1.35;;
37203;SDS011;23098;48.054;10.636;2022-10-04T13:37:18;3.08;;;1.60;;
37203;SDS011;23098;48.054;10.636;2022-10-04T13:42:30;2.45;;;1.42;;
37203;SDS011;23098;48.054;10.636;2022-10-04T13:50:52;3.10;;;1.60;;
37203;SDS011;23098;48.054;10.636;2022-10-04T13:57:14;7.07;;;2.08;;
37203;SDS011;23098;48.054;10.636;2022-10-04T14:08:04;2.38;;;1.80;;
37203;SDS011;23098;48.054;10.636;2022-10-04T14:24:37;3.30;;;1.65;;
37203;SDS011;23098;48.054;10.636;2022-10-04T14:27:33;3.03;;;2.10;;
37203;SDS011;23098;48.054;10.636;2022-10-04T14:30:12;2.00;;;1.80;;
37203;SDS011;23098;48.054;10.636;2022-10-04T14:33:12;4.10;;;1.88;;
37203;SDS011;23098;48.054;10.636;2022-10-04T14:41:34;2.38;;;1.80;;
37203;SDS011;23098;48.054;10.636;2022-10-04T14:44:26;3.78;;;1.75;;
37203;SDS011;23098;48.054;10.636;2022-10-04T14:47:19;1.80;;;1.70;;
37203;SDS011;23098;48.054;10.636;2022-10-04T14:50:17;4.47;;;1.90;;
37203;SDS011;23098;48.054;10.636;2022-10-04T14:53:03;2.95;;;1.55;;
37203;SDS011;23098;48.054;10.636;2022-10-04T15:01:25;1.92;;;1.60;;
37203;SDS011;23098;48.054;10.636;2022-10-04T15:03:56;2.17;;;1.63;;
37203;SDS011;23098;48.054;10.636;2022-10-04T15:15:16;3.35;;;1.83;;
37203;SDS011;23098;48.054;10.636;2022-10-04T15:18:03;2.78;;;1.70;;
37203;SDS011;23098;48.054;10.636;2022-10-04T15:23:32;3.70;;;1.73;;
37203;SDS011;23098;48.054;10.636;2022-10-04T15:28:51;2.63;;;1.75;;
37203;SDS011;23098;48.054;10.636;2022-10-04T15:31:36;6.05;;;1.50;;
37203;SDS011;23098;48.054;10.636;2022-10-04T15:34:29;2.35;;;1.42;;
37203;SDS011;23098;48.054;10.636;2022-10-04T15:42:59;3.42;;;1.80;;
37203;SDS011;23098;48.054;10.636;2022-10-04T15:45:50;2.65;;;1.77;;
37203;SDS011;23098;48.054;10.636;2022-10-04T15:48:38;3.55;;;1.70;;
37203;SDS011;23098;48.054;10.636;2022-10-04T15:51:19;2.40;;;1.50;;
37203;SDS011;23098;48.054;10.636;2022-10-04T15:59:31;2.00;;;1.60;;
37203;SDS011;23098;48.054;10.636;2022-10-04T16:05:31;1.73;;;1.52;;
37203;SDS011;23098;48.054;10.636;2022-10-04T16:13:40;1.92;;;1.73;;
37203;SDS011;23098;48.054;10.636;2022-10-04T16:18:56;2.65;;;1.88;;
37203;SDS011;23098;48.054;10.636;2022-10-04T16:32:14;3.60;;;1.65;;
37203;SDS011;23098;48.054;10.636;2022-10-04T16:34:55;2.55;;;1.52;;
37203;SDS011;23098;48.054;10.636;2022-10-04T16:40:25;3.40;;;1.60;;
37203;SDS011;23098;48.054;10.636;2022-10-04T16:42:58;3.22;;;1.80;;
37203;SDS011;23098;48.054;10.636;2022-10-04T16:53:48;8.02;;;4.00;;
37203;SDS011;23098;48.054;10.636;2022-10-04T17:05:01;5.65;;;3.85;;
37203;SDS011;23098;48.054;10.636;2022-10-04T17:07:31;18.00;;;9.50;;
37203;SDS011;23098;48.054;10.636;2022-10-04T17:16:16;17.40;;;9.95;;
37203;SDS011;23098;48.054;10.636;2022-10-04T17:27:46;15.75;;;8.80;;
37203;SDS011;23098;48.054;10.636;2022-10-04T17:30:20;12.90;;;8.00;;
37203;SDS011;23098;48.054;10.636;2022-10-04T17:35:47;22.60;;;12.48;;
37203;SDS011;23098;48.054;10.636;2022-10-04T17:38:41;28.73;;;15.90;;
37203;SDS011;23098;48.054;10.636;2022-10-04T17:44:18;18.40;;;11.32;;
37203;SDS011;23098;48.054;10.636;2022-10-04T17:47:18;20.90;;;12.00;;
37203;SDS011;23098;48.054;10.636;2022-10-04T17:49:54;14.77;;;7.82;;
37203;SDS011;23098;48.054;10.636;2022-10-04T17:52:55;14.05;;;6.43;;
37203;SDS011;23098;48.054;10.636;2022-10-04T17:55:50;13.13;;;7.30;;
37203;SDS011;23098;48.054;10.636;2022-10-04T17:58:21;10.73;;;6.63;;
37203;SDS011;23098;48.054;10.636;2022-10-04T18:00:59;12.10;;;6.95;;
37203;SDS011;23098;48.054;10.636;2022-10-04T18:03:36;17.42;;;9.52;;
37203;SDS011;23098;48.054;10.636;2022-10-04T18:08:53;12.48;;;7.55;;
37203;SDS011;23098;48.054;10.636;2022-10-04T18:11:45;18.05;;;8.70;;
37203;SDS011;23098;48.054;10.636;2022-10-04T18:17:02;9.15;;;6.70;;
37203;SDS011;23098;48.054;10.636;2022-10-04T18:22:13;6.65;;;3.88;;
37203;SDS011;23098;48.054;10.636;2022-10-04T18:24:41;4.68;;;3.95;;
37203;SDS011;23098;48.054;10.636;2022-10-04T18:27:13;5.68;;;4.22;;
37203;SDS011;23098;48.054;10.636;2022-10-04T18:30:01;8.52;;;4.90;;
37203;SDS011;23098;48.054;10.636;2022-10-04T18:32:37;9.77;;;5.90;;
37203;SDS011;23098;48.054;10.636;2022-10-04T18:35:19;9.63;;;5.75;;
37203;SDS011;23098;48.054;10.636;2022-10-04T18:37:51;7.85;;;5.25;;
37203;SDS011;23098;48.054;10.636;2022-10-04T18:40:20;7.20;;;5.22;;
37203;SDS011;23098;48.054;10.636;2022-10-04T18:42:51;7.57;;;5.63;;
37203;SDS011;23098;48.054;10.636;2022-10-04T18:47:53;10.38;;;5.38;;
37203;SDS011;23098;48.054;10.636;2022-10-04T18:50:33;8.50;;;4.95;;
37203;SDS011;23098;48.054;10.636;2022-10-04T18:53:17;11.80;;;5.72;;
37203;SDS011;23098;48.054;10.636;2022-10-04T18:55:57;13.25;;;5.97;;
37203;SDS011;23098;48.054;10.636;2022-10-04T19:01:59;9.75;;;6.22;;
37203;SDS011;23098;48.054;10.636;2022-10-04T19:06:56;12.50;;;7.10;;
37203;SDS011;23098;48.054;10.636;2022-10-04T19:10:00;8.38;;;6.43;;
37203;SDS011;23098;48.054;10.636;2022-10-04T19:12:35;12.30;;;7.22;;
37203;SDS011;23098;48.054;10.636;2022-10-04T19:20:38;7.72;;;4.93;;
37203;SDS011;23098;48.054;10.636;2022-10-04T19:23:21;7.57;;;5.00;;
37203;SDS011;23098;48.054;10.636;2022-10-04T19:26:12;6.78;;;3.70;;
37203;SDS011;23098;48.054;10.636;2022-10-04T19:28:51;4.38;;;3.42;;
37203;SDS011;23098;48.054;10.636;2022-10-04T19:31:28;7.05;;;5.13;;
37203;SDS011;23098;48.054;10.636;2022-10-04T19:34:07;12.60;;;7.00;;
37203;SDS011;23098;48.054;10.636;2022-10-04T19:42:21;13.40;;;8.57;;
37203;SDS011;23098;48.054;10.636;2022-10-04T19:47:57;11.15;;;7.43;;
37203;SDS011;23098;48.054;10.636;2022-10-04T19:52:59;10.30;;;7.50;;
37203;SDS011;23098;48.054;10.636;2022-10-04T19:58:16;8.57;;;6.13;;
37203;SDS011;23098;48.054;10.636;2022-10-04T20:00:45;8.98;;;6.15;;
37203;SDS011;23098;48.054;10.636;2022-10-04T20:03:14;8.60;;;6.15;;
37203;SDS011;23098;48.054;10.636;2022-10-04T20:05:42;9.05;;;6.30;;
37203;SDS011;23098;48.054;10.636;2022-10-04T20:08:14;10.65;;;6.45;;
37203;SDS011;23098;48.054;10.636;2022-10-04T20:10:41;8.43;;;6.18;;
37203;SDS011;23098;48.054;10.636;2022-10-04T20:13:15;9.63;;;6.07;;
37203;SDS011;23098;48.054;10.636;2022-10-04T20:15:51;13.13;;;6.43;;
37203;SDS011;23098;48.054;10.636;2022-10-04T20:26:09;10.30;;;6.18;;
37203;SDS011;23098;48.054;10.636;2022-10-04T20:29:06;8.30;;;5.88;;
37203;SDS011;23098;48.054;10.636;2022-10-04T20:37:01;8.55;;;6.07;;
37203;SDS011;23098;48.054;10.636;2022-10-04T20:39:54;10.82;;;6.50;;
37203;SDS011;23098;48.054;10.636;2022-10-04T20:42:29;8.52;;;6.35;;
37203;SDS011;23098;48.054;10.636;2022-10-04T20:44:59;13.75;;;6.47;;
37203;SDS011;23098;48.054;10.636;2022-10-04T20:47:51;11.73;;;6.32;;
37203;SDS011;23098;48.054;10.636;2022-10-04T20:50:24;11.27;;;6.20;;
37203;SDS011;23098;48.054;10.636;2022-10-04T20:52:54;10.15;;;5.63;;
37203;SDS011;23098;48.054;10.636;2022-10-04T20:55:33;9.38;;;6.13;;
37203;SDS011;23098;48.054;10.636;2022-10-04T20:58:04;7.50;;;5.95;;
37203;SDS011;23098;48.054;10.636;2022-10-04T21:01:33;8.55;;;5.88;;
37203;SDS011;23098;48.054;10.636;2022-10-04T21:06:54;8.85;;;5.88;;
37203;SDS011;23098;48.054;10.636;2022-10-04T21:09:21;10.30;;;6.10;;
37203;SDS011;23098;48.054;10.636;2022-10-04T21:11:51;8.50;;;6.10;;
37203;SDS011;23098;48.054;10.636;2022-10-04T21:16:58;10.18;;;6.38;;
37203;SDS011;23098;48.054;10.636;2022-10-04T21:24:36;9.23;;;6.28;;
37203;SDS011;23098;48.054;10.636;2022-10-04T21:27:03;8.85;;;6.05;;
37203;SDS011;23098;48.054;10.636;2022-10-04T21:29:30;9.57;;;6.13;;
37203;SDS011;23098;48.054;10.636;2022-10-04T21:31:56;9.23;;;6.50;;
37203;SDS011;23098;48.054;10.636;2022-10-04T21:34:23;8.88;;;6.10;;
37203;SDS011;23098;48.054;10.636;2022-10-04T21:36:48;9.05;;;6.10;;
37203;SDS011;23098;48.054;10.636;2022-10-04T21:39:14;7.65;;;5.75;;
37203;SDS011;23098;48.054;10.636;2022-10-04T21:41:40;10.65;;;6.68;;
37203;SDS011;23098;48.054;10.636;2022-10-04T21:44:06;10.10;;;6.28;;
37203;SDS011;23098;48.054;10.636;2022-10-04T21:46:31;9.25;;;6.30;;
37203;SDS011;23098;48.054;10.636;2022-10-04T21:48:57;9.65;;;6.45;;
37203;SDS011;23098;48.054;10.636;2022-10-04T21:51:23;8.95;;;6.25;;
37203;SDS011;23098;48.054;10.636;2022-10-04T21:53:48;9.50;;;6.53;;
37203;SDS011;23098;48.054;10.636;2022-10-04T21:56:14;9.98;;;6.35;;
37203;SDS011;23098;48.054;10.636;2022-10-04T21:58:39;9.18;;;5.93;;
37203;SDS011;23098;48.054;10.636;2022-10-04T22:01:05;11.68;;;6.03;;
37203;SDS011;23098;48.054;10.636;2022-10-04T22:03:31;8.20;;;5.80;;
37203;SDS011;23098;48.054;10.636;2022-10-04T22:05:56;12.65;;;6.05;;
37203;SDS011;23098;48.054;10.636;2022-10-04T22:08:22;9.88;;;5.38;;
37203;SDS011;23098;48.054;10.636;2022-10-04T22:10:47;9.90;;;5.13;;
37203;SDS011;23098;48.054;10.636;2022-10-04T22:13:13;6.50;;;4.75;;
37203;SDS011;23098;48.054;10.636;2022-10-04T22:15:38;7.65;;;5.10;;
37203;SDS011;23098;48.054;10.636;2022-10-04T22:18:04;8.70;;;5.00;;
37203;SDS011;23098;48.054;10.636;2022-10-04T22:20:30;6.13;;;4.72;;
37203;SDS011;23098;48.054;10.636;2022-10-04T22:22:56;9.60;;;5.68;;
37203;SDS011;23098;48.054;10.636;2022-10-04T22:25:23;7.95;;;5.00;;
37203;SDS011;23098;48.054;10.636;2022-10-04T22:27:50;6.68;;;4.78;;
37203;SDS011;23098;48.054;10.636;2022-10-04T22:30:18;7.15;;;4.80;;
37203;SDS011;23098;48.054;10.636;2022-10-04T22:32:55;8.85;;;4.72;;
37203;SDS011;23098;48.054;10.636;2022-10-04T22:35:24;9.13;;;5.20;;
37203;SDS011;23098;48.054;10.636;2022-10-04T22:37:52;7.25;;;5.57;;
37203;SDS011;23098;48.054;10.636;2022-10-04T22:40:19;8.30;;;5.07;;
37203;SDS011;23098;48.054;10.636;2022-10-04T22:42:53;7.28;;;4.82;;
37203;SDS011;23098;48.054;10.636;2022-10-04T22:45:24;6.65;;;4.80;;
37203;SDS011;23098;48.054;10.636;2022-10-04T22:47:54;7.95;;;4.82;;
37203;SDS011;23098;48.054;10.636;2022-10-04T22:50:30;6.80;;;4.95;;
37203;SDS011;23098;48.054;10.636;2022-10-04T22:53:09;6.57;;;4.70;;
37203;SDS011;23098;48.054;10.636;2022-10-04T22:55:41;7.57;;;4.97;;
37203;SDS011;23098;48.054;10.636;2022-10-04T22:58:10;7.30;;;4.40;;
37203;SDS011;23098;48.054;10.636;2022-10-04T23:00:38;7.00;;;4.13;;
37203;SDS011;23098;48.054;10.636;2022-10-04T23:03:12;8.15;;;4.57;;
37203;SDS011;23098;48.054;10.636;2022-10-04T23:05:46;5.90;;;4.22;;
37203;SDS011;23098;48.054;10.636;2022-10-04T23:08:11;9.38;;;4.53;;
37203;SDS011;23098;48.054;10.636;2022-10-04T23:10:38;7.60;;;4.63;;
37203;SDS011;23098;48.054;10.636;2022-10-04T23:13:04;7.93;;;4.60;;
37203;SDS011;23098;48.054;10.636;2022-10-04T23:15:29;5.88;;;4.53;;
37203;SDS011;23098;48.054;10.636;2022-10-04T23:17:55;7.25;;;4.15;;
37203;SDS011;23098;48.054;10.636;2022-10-04T23:20:21;6.22;;;4.22;;
37203;SDS011;23098;48.054;10.636;2022-10-04T23:22:48;6.50;;;4.20;;
37203;SDS011;23098;48.054;10.636;2022-10-04T23:25:19;5.95;;;4.07;;
37203;SDS011;23098;48.054;10.636;2022-10-04T23:27:48;7.65;;;4.18;;
37203;SDS011;23098;48.054;10.636;2022-10-04T23:30:15;7.10;;;3.90;;
37203;SDS011;23098;48.054;10.636;2022-10-04T23:32:49;5.03;;;3.72;;
37203;SDS011;23098;48.054;10.636;2022-10-04T23:35:18;6.82;;;4.00;;
37203;SDS011;23098;48.054;10.636;2022-10-04T23:37:47;7.18;;;3.92;;
37203;SDS011;23098;48.054;10.636;2022-10-04T23:40:14;5.60;;;4.20;;
37203;SDS011;23098;48.054;10.636;2022-10-04T23:42:42;6.68;;;4.10;;
37203;SDS011;23098;48.054;10.636;2022-10-04T23:45:12;7.13;;;4.28;;